JJA784 RKPK-RKPC
Flight info
| Callsign | JJA784 |
|---|---|
| Flight time | 0h 35m |
| Altitude | 23997 |
| Route | OPONO3 ENGOT Y572 UPGOS UPGOS2M |
| Aircraft | B738/M-SDE2E3FGHIRWXY/LB1 |
Departure
| Time | 2026-05-04 12:40 |
|---|---|
| Airport | Gimhae International Airport (RKPK) |
Arrival
| Time | 2026-05-04 13:16 |
|---|---|
| Airport | Jeju International Airport (RKPC) |
| Time | Latitude | Longitude | Altitude | Speed | Heading |
|---|---|---|---|---|---|
| 2026-05-04 12:25 | 35.17098 | 128.94591 | -5 ft | 0 kts | 70° |
| 2026-05-04 12:32 | 35.17093 | 128.94575 | 24 ft | 3 kts | 70° |
| 2026-05-04 12:32 | 35.17086 | 128.94552 | 25 ft | 3 kts | 70° |
| 2026-05-04 12:33 | 35.17081 | 128.94534 | 25 ft | 3 kts | 79° |
| 2026-05-04 12:33 | 35.17081 | 128.94514 | 26 ft | 3 kts | 131° |
| 2026-05-04 12:33 | 35.17096 | 128.94500 | 25 ft | 3 kts | 156° |
| 2026-05-04 12:33 | 35.17115 | 128.94492 | 26 ft | 3 kts | 167° |
| 2026-05-04 12:34 | 35.17132 | 128.94487 | 25 ft | 1 kts | 173° |
| 2026-05-04 12:34 | 35.17134 | 128.94487 | 24 ft | 0 kts | 173° |
| 2026-05-04 12:36 | 35.17132 | 128.94488 | 25 ft | 2 kts | 173° |
| 2026-05-04 12:37 | 35.17056 | 128.94497 | 23 ft | 17 kts | 175° |
| 2026-05-04 12:37 | 35.16996 | 128.94437 | 22 ft | 11 kts | 255° |
| 2026-05-04 12:37 | 35.16990 | 128.94385 | 22 ft | 6 kts | 265° |
| 2026-05-04 12:37 | 35.16981 | 128.94290 | 22 ft | 15 kts | 263° |
| 2026-05-04 12:38 | 35.16972 | 128.94192 | 22 ft | 0 kts | 263° |
| 2026-05-04 12:39 | 35.16970 | 128.94166 | 22 ft | 7 kts | 264° |
| 2026-05-04 12:39 | 35.16975 | 128.94084 | 21 ft | 12 kts | 304° |
| 2026-05-04 12:39 | 35.17049 | 128.94047 | 21 ft | 2 kts | 353° |
| 2026-05-04 12:40 | 35.17129 | 128.94035 | 22 ft | 50 kts | 353° |
| 2026-05-04 12:40 | 35.17884 | 128.93934 | 69 ft | 160 kts | 353° |
| 2026-05-04 12:40 | 35.19182 | 128.93778 | 806 ft | 202 kts | 354° |
| 2026-05-04 12:40 | 35.20443 | 128.93403 | 2616 ft | 173 kts | 334° |
| 2026-05-04 12:41 | 35.21344 | 128.92390 | 3872 ft | 191 kts | 297° |
| 2026-05-04 12:41 | 35.21717 | 128.90702 | 4441 ft | 223 kts | 287° |
| 2026-05-04 12:41 | 35.22234 | 128.88770 | 4896 ft | 257 kts | 292° |
| 2026-05-04 12:41 | 35.22937 | 128.86727 | 6091 ft | 263 kts | 295° |
| 2026-05-04 12:42 | 35.23732 | 128.84674 | 6949 ft | 278 kts | 297° |
| 2026-05-04 12:42 | 35.24614 | 128.82519 | 6705 ft | 283 kts | 298° |
| 2026-05-04 12:42 | 35.25470 | 128.80385 | 6589 ft | 270 kts | 291° |
| 2026-05-04 12:42 | 35.25680 | 128.78153 | 6536 ft | 265 kts | 262° |
| 2026-05-04 12:43 | 35.24969 | 128.76135 | 6742 ft | 262 kts | 234° |
| 2026-05-04 12:43 | 35.23502 | 128.74707 | 6934 ft | 279 kts | 211° |
| 2026-05-04 12:43 | 35.21784 | 128.73587 | 7200 ft | 281 kts | 211° |
| 2026-05-04 12:43 | 35.20072 | 128.72422 | 7437 ft | 282 kts | 211° |
| 2026-05-04 12:44 | 35.18359 | 128.71251 | 7683 ft | 282 kts | 212° |
| 2026-05-04 12:44 | 35.16657 | 128.70097 | 7937 ft | 284 kts | 212° |
| 2026-05-04 12:44 | 35.14930 | 128.68929 | 8025 ft | 283 kts | 212° |
| 2026-05-04 12:44 | 35.13203 | 128.67762 | 8027 ft | 285 kts | 212° |
| 2026-05-04 12:45 | 35.11488 | 128.66605 | 8027 ft | 285 kts | 212° |
| 2026-05-04 12:45 | 35.09792 | 128.65463 | 8035 ft | 285 kts | 211° |
| 2026-05-04 12:45 | 35.08078 | 128.64307 | 8020 ft | 285 kts | 212° |
| 2026-05-04 12:45 | 35.06343 | 128.63138 | 8027 ft | 284 kts | 212° |
| 2026-05-04 12:46 | 35.04611 | 128.61973 | 8039 ft | 284 kts | 212° |
| 2026-05-04 12:46 | 35.02879 | 128.60807 | 8026 ft | 284 kts | 212° |
| 2026-05-04 12:46 | 35.01148 | 128.59643 | 8034 ft | 284 kts | 212° |
| 2026-05-04 12:46 | 34.99517 | 128.58317 | 8033 ft | 281 kts | 224° |
| 2026-05-04 12:47 | 34.98129 | 128.56645 | 8080 ft | 283 kts | 230° |
| 2026-05-04 12:47 | 34.96779 | 128.54870 | 8943 ft | 286 kts | 230° |
| 2026-05-04 12:47 | 34.95436 | 128.53105 | 10300 ft | 285 kts | 231° |
| 2026-05-04 12:47 | 34.94039 | 128.51289 | 11083 ft | 306 kts | 230° |
| 2026-05-04 12:48 | 34.92490 | 128.49301 | 11361 ft | 340 kts | 229° |
| 2026-05-04 12:48 | 34.90786 | 128.47150 | 11902 ft | 361 kts | 229° |
| 2026-05-04 12:48 | 34.89010 | 128.44942 | 12806 ft | 368 kts | 228° |
| 2026-05-04 12:48 | 34.87192 | 128.42704 | 13812 ft | 374 kts | 227° |
| 2026-05-04 12:49 | 34.85342 | 128.40440 | 14729 ft | 379 kts | 227° |
| 2026-05-04 12:49 | 34.83498 | 128.38189 | 15696 ft | 381 kts | 227° |
| 2026-05-04 12:49 | 34.81647 | 128.35935 | 16650 ft | 384 kts | 227° |
| 2026-05-04 12:49 | 34.79848 | 128.33746 | 17625 ft | 384 kts | 228° |
| 2026-05-04 12:50 | 34.77985 | 128.31482 | 18587 ft | 387 kts | 228° |
| 2026-05-04 12:50 | 34.76075 | 128.29160 | 19347 ft | 391 kts | 228° |
| 2026-05-04 12:50 | 34.74145 | 128.26816 | 20143 ft | 394 kts | 228° |
| 2026-05-04 12:50 | 34.72203 | 128.24460 | 20973 ft | 395 kts | 228° |
| 2026-05-04 12:51 | 34.70251 | 128.22092 | 21769 ft | 398 kts | 228° |
| 2026-05-04 12:51 | 34.68287 | 128.19712 | 22526 ft | 400 kts | 228° |
| 2026-05-04 12:51 | 34.66307 | 128.17314 | 23275 ft | 402 kts | 228° |
| 2026-05-04 12:51 | 34.64311 | 128.14897 | 23789 ft | 410 kts | 228° |
| 2026-05-04 12:52 | 34.62279 | 128.12438 | 24072 ft | 413 kts | 228° |
| 2026-05-04 12:52 | 34.60252 | 128.09989 | 24108 ft | 411 kts | 228° |
| 2026-05-04 12:52 | 34.58221 | 128.07538 | 24115 ft | 412 kts | 228° |
| 2026-05-04 12:52 | 34.56190 | 128.05089 | 24119 ft | 412 kts | 228° |
| 2026-05-04 12:53 | 34.54168 | 128.02652 | 24104 ft | 402 kts | 228° |
| 2026-05-04 12:53 | 34.52238 | 128.00335 | 24100 ft | 383 kts | 228° |
| 2026-05-04 12:53 | 34.50314 | 127.98018 | 24122 ft | 396 kts | 228° |
| 2026-05-04 12:53 | 34.48325 | 127.95615 | 24131 ft | 410 kts | 228° |
| 2026-05-04 12:54 | 34.46280 | 127.93147 | 24131 ft | 418 kts | 228° |
| 2026-05-04 12:54 | 34.44215 | 127.90664 | 24123 ft | 417 kts | 228° |
| 2026-05-04 12:54 | 34.42170 | 127.88213 | 24112 ft | 412 kts | 228° |
| 2026-05-04 12:54 | 34.40139 | 127.85779 | 24116 ft | 410 kts | 228° |
| 2026-05-04 12:55 | 34.38126 | 127.83370 | 24098 ft | 399 kts | 228° |
| 2026-05-04 12:55 | 34.36185 | 127.81052 | 24109 ft | 387 kts | 228° |
| 2026-05-04 12:55 | 34.34280 | 127.78773 | 24114 ft | 382 kts | 228° |
| 2026-05-04 12:55 | 34.32456 | 127.76592 | 24105 ft | 364 kts | 229° |
| 2026-05-04 12:56 | 34.30701 | 127.74499 | 24108 ft | 346 kts | 229° |
| 2026-05-04 12:56 | 34.29025 | 127.72499 | 24105 ft | 329 kts | 229° |
| 2026-05-04 12:56 | 34.27434 | 127.70601 | 24108 ft | 313 kts | 229° |
| 2026-05-04 12:56 | 34.25918 | 127.68792 | 24095 ft | 299 kts | 229° |
| 2026-05-04 12:57 | 34.24462 | 127.67053 | 23964 ft | 290 kts | 229° |
| 2026-05-04 12:57 | 34.23035 | 127.65347 | 23643 ft | 288 kts | 230° |
| 2026-05-04 12:57 | 34.21605 | 127.63635 | 23113 ft | 292 kts | 230° |
| 2026-05-04 12:57 | 34.20149 | 127.61892 | 22513 ft | 297 kts | 229° |
| 2026-05-04 12:58 | 34.18662 | 127.60115 | 21846 ft | 305 kts | 229° |
| 2026-05-04 12:58 | 34.17124 | 127.58278 | 20881 ft | 319 kts | 229° |
| 2026-05-04 12:58 | 34.15503 | 127.56343 | 19836 ft | 336 kts | 229° |
| 2026-05-04 12:58 | 34.13803 | 127.54318 | 18825 ft | 350 kts | 229° |
| 2026-05-04 12:59 | 34.12043 | 127.52228 | 17768 ft | 360 kts | 228° |
| 2026-05-04 12:59 | 34.10261 | 127.50118 | 17227 ft | 355 kts | 228° |
| 2026-05-04 12:59 | 34.08511 | 127.48049 | 16727 ft | 349 kts | 228° |
| 2026-05-04 12:59 | 34.06797 | 127.46021 | 16265 ft | 342 kts | 228° |
| 2026-05-04 13:00 | 34.05116 | 127.44029 | 15829 ft | 337 kts | 228° |
| 2026-05-04 13:00 | 34.03446 | 127.42047 | 15409 ft | 336 kts | 228° |
| 2026-05-04 13:00 | 34.01762 | 127.40052 | 15202 ft | 343 kts | 228° |
| 2026-05-04 13:00 | 34.00062 | 127.38041 | 15155 ft | 339 kts | 228° |
| 2026-05-04 13:01 | 33.98556 | 127.35957 | 15135 ft | 318 kts | 236° |
| 2026-05-04 13:01 | 33.97317 | 127.33865 | 15129 ft | 296 kts | 239° |
| 2026-05-04 13:01 | 33.96210 | 127.31875 | 15127 ft | 277 kts | 240° |
| 2026-05-04 13:01 | 33.95167 | 127.29973 | 15130 ft | 266 kts | 240° |
| 2026-05-04 13:02 | 33.94172 | 127.28158 | 15112 ft | 254 kts | 240° |
| 2026-05-04 13:02 | 33.93204 | 127.26398 | 14887 ft | 250 kts | 240° |
| 2026-05-04 13:02 | 33.92237 | 127.24644 | 14549 ft | 253 kts | 240° |
| 2026-05-04 13:02 | 33.91588 | 127.23470 | 14267 ft | 257 kts | 240° |
| 2026-05-04 13:03 | 33.90585 | 127.21658 | 13784 ft | 264 kts | 240° |
| 2026-05-04 13:03 | 33.89541 | 127.19777 | 12970 ft | 279 kts | 239° |
| 2026-05-04 13:03 | 33.88428 | 127.17775 | 12173 ft | 293 kts | 239° |
| 2026-05-04 13:03 | 33.87291 | 127.15741 | 11855 ft | 289 kts | 239° |
| 2026-05-04 13:04 | 33.86190 | 127.13779 | 11717 ft | 278 kts | 239° |
| 2026-05-04 13:04 | 33.85118 | 127.11871 | 11446 ft | 274 kts | 239° |
| 2026-05-04 13:04 | 33.84053 | 127.09971 | 11081 ft | 273 kts | 239° |
| 2026-05-04 13:04 | 33.82991 | 127.08078 | 10721 ft | 273 kts | 239° |
| 2026-05-04 13:05 | 33.81933 | 127.06192 | 10390 ft | 271 kts | 239° |
| 2026-05-04 13:05 | 33.80881 | 127.04319 | 10070 ft | 270 kts | 239° |
| 2026-05-04 13:05 | 33.79833 | 127.02454 | 9687 ft | 269 kts | 239° |
| 2026-05-04 13:05 | 33.78785 | 127.00588 | 9322 ft | 268 kts | 239° |
| 2026-05-04 13:06 | 33.77744 | 126.98737 | 8980 ft | 266 kts | 238° |
| 2026-05-04 13:06 | 33.76704 | 126.96888 | 8579 ft | 268 kts | 238° |
| 2026-05-04 13:06 | 33.75663 | 126.95039 | 8237 ft | 266 kts | 238° |
| 2026-05-04 13:06 | 33.74628 | 126.93201 | 7895 ft | 265 kts | 238° |
| 2026-05-04 13:07 | 33.73624 | 126.91425 | 7780 ft | 245 kts | 239° |
| 2026-05-04 13:07 | 33.72708 | 126.89806 | 7637 ft | 223 kts | 239° |
| 2026-05-04 13:07 | 33.71871 | 126.88324 | 7427 ft | 209 kts | 239° |
| 2026-05-04 13:07 | 33.71064 | 126.86890 | 7015 ft | 206 kts | 239° |
| 2026-05-04 13:08 | 33.70276 | 126.85484 | 6617 ft | 202 kts | 238° |
| 2026-05-04 13:08 | 33.69487 | 126.84086 | 6145 ft | 201 kts | 238° |
| 2026-05-04 13:08 | 33.68705 | 126.82714 | 5744 ft | 197 kts | 239° |
| 2026-05-04 13:08 | 33.67936 | 126.81335 | 5259 ft | 201 kts | 238° |
| 2026-05-04 13:09 | 33.67173 | 126.79987 | 5109 ft | 194 kts | 238° |
| 2026-05-04 13:09 | 33.66408 | 126.78638 | 4943 ft | 198 kts | 238° |
| 2026-05-04 13:09 | 33.65624 | 126.77263 | 4717 ft | 201 kts | 239° |
| 2026-05-04 13:09 | 33.64915 | 126.75886 | 4499 ft | 187 kts | 244° |
| 2026-05-04 13:10 | 33.64265 | 126.74576 | 4291 ft | 179 kts | 241° |
| 2026-05-04 13:10 | 33.63618 | 126.73308 | 4108 ft | 179 kts | 240° |
| 2026-05-04 13:10 | 33.62949 | 126.72018 | 4022 ft | 182 kts | 240° |
| 2026-05-04 13:10 | 33.62312 | 126.70787 | 4010 ft | 167 kts | 241° |
| 2026-05-04 13:11 | 33.61723 | 126.69644 | 3875 ft | 162 kts | 241° |
| 2026-05-04 13:11 | 33.61133 | 126.68499 | 3638 ft | 159 kts | 241° |
| 2026-05-04 13:11 | 33.60530 | 126.67331 | 3472 ft | 178 kts | 240° |
| 2026-05-04 13:11 | 33.59868 | 126.66073 | 3069 ft | 176 kts | 239° |
| 2026-05-04 13:12 | 33.59243 | 126.64900 | 2762 ft | 160 kts | 240° |
| 2026-05-04 13:12 | 33.58702 | 126.63783 | 2521 ft | 155 kts | 244° |
| 2026-05-04 13:12 | 33.58177 | 126.62602 | 2552 ft | 164 kts | 244° |
| 2026-05-04 13:12 | 33.57489 | 126.61393 | 2229 ft | 193 kts | 233° |
| 2026-05-04 13:13 | 33.56801 | 126.60404 | 1810 ft | 207 kts | 234° |
| 2026-05-04 13:13 | 33.56112 | 126.58923 | 1784 ft | 195 kts | 247° |
| 2026-05-04 13:13 | 33.55497 | 126.57510 | 1785 ft | 188 kts | 242° |
| 2026-05-04 13:13 | 33.54882 | 126.56283 | 1375 ft | 159 kts | 238° |
| 2026-05-04 13:14 | 33.54275 | 126.55220 | 864 ft | 151 kts | 236° |
| 2026-05-04 13:14 | 33.53805 | 126.54252 | 834 ft | 130 kts | 240° |
| 2026-05-04 13:14 | 33.53328 | 126.53345 | 800 ft | 132 kts | 238° |
| 2026-05-04 13:14 | 33.52861 | 126.52419 | 713 ft | 127 kts | 238° |
| 2026-05-04 13:15 | 33.52398 | 126.51522 | 500 ft | 126 kts | 239° |
| 2026-05-04 13:15 | 33.51945 | 126.50635 | 306 ft | 123 kts | 237° |
| 2026-05-04 13:15 | 33.51499 | 126.49775 | 141 ft | 120 kts | 237° |
| 2026-05-04 13:15 | 33.51083 | 126.48980 | 89 ft | 96 kts | 239° |
| 2026-05-04 13:16 | 33.50815 | 126.48448 | 94 ft | 52 kts | 239° |
| 2026-05-04 13:16 | 33.50759 | 126.48337 | 91 ft | 6 kts | 240° |
| 2026-05-04 13:16 | 33.50722 | 126.48281 | 90 ft | 14 kts | 223° |
| 2026-05-04 13:16 | 33.50655 | 126.48214 | 92 ft | 9 kts | 202° |
| 2026-05-04 13:17 | 33.50596 | 126.48180 | 91 ft | 8 kts | 208° |
| 2026-05-04 13:17 | 33.50592 | 126.48177 | 91 ft | 0 kts | 208° |
| 2026-05-04 13:17 | 33.50591 | 126.48177 | 91 ft | 0 kts | 208° |
| 2026-05-04 13:18 | 33.50574 | 126.48168 | 93 ft | 8 kts | 199° |
| 2026-05-04 13:18 | 33.50514 | 126.48199 | 91 ft | 11 kts | 105° |
| 2026-05-04 13:18 | 33.50540 | 126.48294 | 92 ft | 18 kts | 59° |
| 2026-05-04 13:18 | 33.50617 | 126.48449 | 90 ft | 22 kts | 71° |
| 2026-05-04 13:19 | 33.50539 | 126.48580 | 93 ft | 20 kts | 125° |
| 2026-05-04 13:19 | 33.50577 | 126.48714 | 91 ft | 17 kts | 58° |
| 2026-05-04 13:19 | 33.50639 | 126.48835 | 88 ft | 16 kts | 58° |
| 2026-05-04 13:19 | 33.50696 | 126.48949 | 92 ft | 16 kts | 58° |
| 2026-05-04 13:20 | 33.50742 | 126.49036 | 88 ft | 9 kts | 58° |
| 2026-05-04 13:20 | 33.50717 | 126.49090 | 89 ft | 9 kts | 150° |
| 2026-05-04 13:20 | 33.50674 | 126.49118 | 90 ft | 0 kts | 151° |